< < Back
Terminal Aerodrome Forecast


Current Version              Previous Versions:   1  2  3  4  5  6  7  8  9  

Terminal Aerodrome Forecast

861
FTUS42 KJAX 291721
TAFGNV
TAF
KGNV 291721Z 2918/3018 12005KT P6SM SCT250
     FM291900 17005KT P6SM BKN250
     FM292100 21006KT P6SM BKN250
     FM300100 24003KT P6SM BKN250
     FM301000 28003KT 5SM BR SCT025 OVC050
     FM301230 28004KT P6SM OVC015
     FM301700 31012G18KT P6SM BKN025=



Latest METAR

112
SAUS70 KWBC 292200 RRC
MTRGNV
METAR KGNV 292153Z 24004KT 10SM CLR 19/07 A3023 RMK AO2 SLP236
T01890067


USA.gov is the U.S. government's official web portal to all federal, state and local government web resources and services.